sensor_id;sensor_type;location;lat;lon;timestamp;temperature;humidity
9971;DHT22;5026;51.494;11.974;2023-02-20T00:00:44;5.30;99.90
9971;DHT22;5026;51.494;11.974;2023-02-20T00:03:14;5.30;99.90
9971;DHT22;5026;51.494;11.974;2023-02-20T00:05:41;5.20;99.90
9971;DHT22;5026;51.494;11.974;2023-02-20T00:08:08;5.20;99.90
9971;DHT22;5026;51.494;11.974;2023-02-20T00:10:35;5.20;99.90
9971;DHT22;5026;51.494;11.974;2023-02-20T00:13:02;5.20;99.90
9971;DHT22;5026;51.494;11.974;2023-02-20T00:15:31;5.30;99.90
9971;DHT22;5026;51.494;11.974;2023-02-20T00:17:58;5.40;99.90
9971;DHT22;5026;51.494;11.974;2023-02-20T00:20:25;5.40;99.90
9971;DHT22;5026;51.494;11.974;2023-02-20T00:22:55;5.50;99.90
9971;DHT22;5026;51.494;11.974;2023-02-20T00:25:22;5.50;99.90
9971;DHT22;5026;51.494;11.974;2023-02-20T00:27:49;5.60;99.90
9971;DHT22;5026;51.494;11.974;2023-02-20T00:30:17;5.60;99.90
9971;DHT22;5026;51.494;11.974;2023-02-20T00:32:47;5.70;99.90
9971;DHT22;5026;51.494;11.974;2023-02-20T00:35:14;5.70;99.90
9971;DHT22;5026;51.494;11.974;2023-02-20T00:37:41;5.70;99.90
9971;DHT22;5026;51.494;11.974;2023-02-20T00:40:08;5.80;99.90
9971;DHT22;5026;51.494;11.974;2023-02-20T00:42:36;5.80;99.90
9971;DHT22;5026;51.494;11.974;2023-02-20T00:45:03;5.80;99.90
9971;DHT22;5026;51.494;11.974;2023-02-20T00:47:30;5.80;99.90
9971;DHT22;5026;51.494;11.974;2023-02-20T00:49:59;5.90;99.90
9971;DHT22;5026;51.494;11.974;2023-02-20T00:52:26;5.90;99.90
9971;DHT22;5026;51.494;11.974;2023-02-20T00:54:53;5.90;99.90
9971;DHT22;5026;51.494;11.974;2023-02-20T00:57:20;6.00;99.90
9971;DHT22;5026;51.494;11.974;2023-02-20T00:59:47;5.90;99.90
9971;DHT22;5026;51.494;11.974;2023-02-20T01:02:14;6.00;99.90
9971;DHT22;5026;51.494;11.974;2023-02-20T01:04:41;6.00;99.90
9971;DHT22;5026;51.494;11.974;2023-02-20T01:07:10;6.00;99.90
9971;DHT22;5026;51.494;11.974;2023-02-20T01:09:37;6.00;99.90
9971;DHT22;5026;51.494;11.974;2023-02-20T01:12:04;6.30;99.90
9971;DHT22;5026;51.494;11.974;2023-02-20T01:14:31;6.00;99.90
9971;DHT22;5026;51.494;11.974;2023-02-20T01:16:58;6.00;99.90
9971;DHT22;5026;51.494;11.974;2023-02-20T01:19:25;6.10;99.90
9971;DHT22;5026;51.494;11.974;2023-02-20T01:21:52;6.10;99.90
9971;DHT22;5026;51.494;11.974;2023-02-20T01:24:20;6.00;99.90
9971;DHT22;5026;51.494;11.974;2023-02-20T01:26:48;6.10;99.90
9971;DHT22;5026;51.494;11.974;2023-02-20T01:29:16;6.10;99.90
9971;DHT22;5026;51.494;11.974;2023-02-20T01:31:46;6.10;99.90
9971;DHT22;5026;51.494;11.974;2023-02-20T01:34:13;6.10;99.90
9971;DHT22;5026;51.494;11.974;2023-02-20T01:36:45;6.10;99.90
9971;DHT22;5026;51.494;11.974;2023-02-20T01:39:15;6.20;99.90
9971;DHT22;5026;51.494;11.974;2023-02-20T01:41:43;6.20;99.90
9971;DHT22;5026;51.494;11.974;2023-02-20T01:44:17;6.20;99.90
9971;DHT22;5026;51.494;11.974;2023-02-20T01:46:50;6.20;99.90
9971;DHT22;5026;51.494;11.974;2023-02-20T01:49:22;6.30;99.90
9971;DHT22;5026;51.494;11.974;2023-02-20T01:51:52;6.30;99.90
9971;DHT22;5026;51.494;11.974;2023-02-20T01:54:23;6.70;99.90
9971;DHT22;5026;51.494;11.974;2023-02-20T01:56:53;6.20;99.90
9971;DHT22;5026;51.494;11.974;2023-02-20T01:59:22;6.10;99.90
9971;DHT22;5026;51.494;11.974;2023-02-20T02:01:51;6.10;99.90
9971;DHT22;5026;51.494;11.974;2023-02-20T02:04:19;6.10;99.90
9971;DHT22;5026;51.494;11.974;2023-02-20T02:06:48;6.10;99.90
9971;DHT22;5026;51.494;11.974;2023-02-20T02:09:20;6.60;99.90
9971;DHT22;5026;51.494;11.974;2023-02-20T02:11:49;6.30;99.90
9971;DHT22;5026;51.494;11.974;2023-02-20T02:14:17;6.30;99.90
9971;DHT22;5026;51.494;11.974;2023-02-20T02:17:01;6.30;99.90
9971;DHT22;5026;51.494;11.974;2023-02-20T02:23:16;6.40;99.90
9971;DHT22;5026;51.494;11.974;2023-02-20T02:25:53;6.40;99.90
9971;DHT22;5026;51.494;11.974;2023-02-20T02:28:48;6.40;99.90
9971;DHT22;5026;51.494;11.974;2023-02-20T02:32:00;6.40;99.90
9971;DHT22;5026;51.494;11.974;2023-02-20T02:34:49;6.40;99.90
9971;DHT22;5026;51.494;11.974;2023-02-20T02:37:26;6.40;99.90
9971;DHT22;5026;51.494;11.974;2023-02-20T02:40:00;6.40;99.90
9971;DHT22;5026;51.494;11.974;2023-02-20T02:42:34;6.40;99.90
9971;DHT22;5026;51.494;11.974;2023-02-20T02:45:11;6.50;99.90
9971;DHT22;5026;51.494;11.974;2023-02-20T02:47:47;6.50;99.90
9971;DHT22;5026;51.494;11.974;2023-02-20T02:50:18;6.50;99.90
9971;DHT22;5026;51.494;11.974;2023-02-20T02:52:49;6.50;99.90
9971;DHT22;5026;51.494;11.974;2023-02-20T02:55:17;6.50;99.90
9971;DHT22;5026;51.494;11.974;2023-02-20T02:57:46;6.50;99.90
9971;DHT22;5026;51.494;11.974;2023-02-20T03:00:16;6.50;99.90
9971;DHT22;5026;51.494;11.974;2023-02-20T03:02:49;6.60;99.90
9971;DHT22;5026;51.494;11.974;2023-02-20T03:05:19;6.60;99.90
9971;DHT22;5026;51.494;11.974;2023-02-20T03:07:52;6.60;99.90
9971;DHT22;5026;51.494;11.974;2023-02-20T03:10:22;6.60;99.90
9971;DHT22;5026;51.494;11.974;2023-02-20T03:12:58;6.60;99.90
9971;DHT22;5026;51.494;11.974;2023-02-20T03:15:29;6.70;99.90
9971;DHT22;5026;51.494;11.974;2023-02-20T03:18:14;6.70;99.90
9971;DHT22;5026;51.494;11.974;2023-02-20T03:20:46;6.80;99.90
9971;DHT22;5026;51.494;11.974;2023-02-20T03:23:17;6.80;99.90
9971;DHT22;5026;51.494;11.974;2023-02-20T03:25:49;6.80;99.90
9971;DHT22;5026;51.494;11.974;2023-02-20T03:28:22;6.80;99.90
9971;DHT22;5026;51.494;11.974;2023-02-20T03:30:54;6.80;99.90
9971;DHT22;5026;51.494;11.974;2023-02-20T03:33:26;6.90;99.90
9971;DHT22;5026;51.494;11.974;2023-02-20T03:36:15;6.80;99.90
9971;DHT22;5026;51.494;11.974;2023-02-20T03:39:08;7.00;99.90
9971;DHT22;5026;51.494;11.974;2023-02-20T03:41:56;6.90;99.90
9971;DHT22;5026;51.494;11.974;2023-02-20T03:44:43;8.60;99.90
9971;DHT22;5026;51.494;11.974;2023-02-20T03:47:13;6.90;99.90
9971;DHT22;5026;51.494;11.974;2023-02-20T03:49:42;6.90;99.90
9971;DHT22;5026;51.494;11.974;2023-02-20T03:52:10;6.90;99.90
9971;DHT22;5026;51.494;11.974;2023-02-20T03:54:39;6.90;99.90
9971;DHT22;5026;51.494;11.974;2023-02-20T03:57:10;6.90;99.90
9971;DHT22;5026;51.494;11.974;2023-02-20T03:59:41;6.90;99.90
9971;DHT22;5026;51.494;11.974;2023-02-20T04:02:13;6.90;99.90
9971;DHT22;5026;51.494;11.974;2023-02-20T04:04:45;6.90;99.90
9971;DHT22;5026;51.494;11.974;2023-02-20T04:07:15;6.90;99.90
9971;DHT22;5026;51.494;11.974;2023-02-20T04:09:45;6.90;99.90
9971;DHT22;5026;51.494;11.974;2023-02-20T04:12:16;6.80;99.90
9971;DHT22;5026;51.494;11.974;2023-02-20T04:14:47;7.00;99.90
9971;DHT22;5026;51.494;11.974;2023-02-20T04:17:19;7.30;99.90
9971;DHT22;5026;51.494;11.974;2023-02-20T04:19:46;6.90;99.90
9971;DHT22;5026;51.494;11.974;2023-02-20T04:22:17;6.90;99.90
9971;DHT22;5026;51.494;11.974;2023-02-20T04:24:49;7.00;99.90
9971;DHT22;5026;51.494;11.974;2023-02-20T04:27:18;6.90;99.90
9971;DHT22;5026;51.494;11.974;2023-02-20T04:29:45;6.90;99.90
9971;DHT22;5026;51.494;11.974;2023-02-20T04:32:12;6.90;99.90
9971;DHT22;5026;51.494;11.974;2023-02-20T04:34:39;7.00;99.90
9971;DHT22;5026;51.494;11.974;2023-02-20T04:37:08;7.00;99.90
9971;DHT22;5026;51.494;11.974;2023-02-20T04:39:35;7.00;99.90
9971;DHT22;5026;51.494;11.974;2023-02-20T04:42:04;7.00;99.90
9971;DHT22;5026;51.494;11.974;2023-02-20T04:44:32;7.00;99.90
9971;DHT22;5026;51.494;11.974;2023-02-20T04:47:01;7.00;99.90
9971;DHT22;5026;51.494;11.974;2023-02-20T04:49:29;7.10;99.90
9971;DHT22;5026;51.494;11.974;2023-02-20T04:51:55;7.10;99.90
9971;DHT22;5026;51.494;11.974;2023-02-20T04:54:23;7.10;99.90
9971;DHT22;5026;51.494;11.974;2023-02-20T04:56:51;7.10;99.90
9971;DHT22;5026;51.494;11.974;2023-02-20T04:59:19;7.10;99.90
9971;DHT22;5026;51.494;11.974;2023-02-20T05:01:46;7.10;99.90
9971;DHT22;5026;51.494;11.974;2023-02-20T05:04:16;7.10;99.90
9971;DHT22;5026;51.494;11.974;2023-02-20T05:06:47;7.10;99.90
9971;DHT22;5026;51.494;11.974;2023-02-20T05:09:14;7.10;99.90
9971;DHT22;5026;51.494;11.974;2023-02-20T05:11:41;7.60;99.90
9971;DHT22;5026;51.494;11.974;2023-02-20T05:14:08;7.10;99.90
9971;DHT22;5026;51.494;11.974;2023-02-20T05:16:38;7.10;99.90
9971;DHT22;5026;51.494;11.974;2023-02-20T05:19:06;7.10;99.90
9971;DHT22;5026;51.494;11.974;2023-02-20T05:21:33;7.10;99.90
9971;DHT22;5026;51.494;11.974;2023-02-20T05:24:18;7.10;99.90
9971;DHT22;5026;51.494;11.974;2023-02-20T05:26:45;7.10;99.90
9971;DHT22;5026;51.494;11.974;2023-02-20T05:29:12;7.10;99.90
9971;DHT22;5026;51.494;11.974;2023-02-20T05:31:40;7.10;99.90
9971;DHT22;5026;51.494;11.974;2023-02-20T05:34:08;7.10;99.90
9971;DHT22;5026;51.494;11.974;2023-02-20T05:36:35;7.50;99.90
9971;DHT22;5026;51.494;11.974;2023-02-20T05:39:02;7.10;99.90
9971;DHT22;5026;51.494;11.974;2023-02-20T05:41:29;7.40;99.90
9971;DHT22;5026;51.494;11.974;2023-02-20T05:43:56;7.10;99.90
9971;DHT22;5026;51.494;11.974;2023-02-20T05:46:24;7.10;99.90
9971;DHT22;5026;51.494;11.974;2023-02-20T05:48:53;7.20;99.90
9971;DHT22;5026;51.494;11.974;2023-02-20T05:51:22;7.10;99.90
9971;DHT22;5026;51.494;11.974;2023-02-20T05:53:49;7.20;99.90
9971;DHT22;5026;51.494;11.974;2023-02-20T05:56:16;7.20;99.90
9971;DHT22;5026;51.494;11.974;2023-02-20T05:58:44;7.20;99.90
9971;DHT22;5026;51.494;11.974;2023-02-20T06:01:17;7.20;99.90
9971;DHT22;5026;51.494;11.974;2023-02-20T06:03:44;7.10;99.90
9971;DHT22;5026;51.494;11.974;2023-02-20T06:06:13;7.10;99.90
9971;DHT22;5026;51.494;11.974;2023-02-20T06:08:40;7.20;99.90
9971;DHT22;5026;51.494;11.974;2023-02-20T06:11:08;7.20;99.90
9971;DHT22;5026;51.494;11.974;2023-02-20T06:13:35;7.20;99.90
9971;DHT22;5026;51.494;11.974;2023-02-20T06:16:02;7.20;99.90
9971;DHT22;5026;51.494;11.974;2023-02-20T06:18:29;7.20;99.90
9971;DHT22;5026;51.494;11.974;2023-02-20T06:20:56;7.20;99.90
9971;DHT22;5026;51.494;11.974;2023-02-20T06:23:25;7.20;99.90
9971;DHT22;5026;51.494;11.974;2023-02-20T06:25:51;7.20;99.90
9971;DHT22;5026;51.494;11.974;2023-02-20T06:28:18;7.20;99.90
9971;DHT22;5026;51.494;11.974;2023-02-20T06:30:46;7.20;99.90
9971;DHT22;5026;51.494;11.974;2023-02-20T06:33:13;7.30;99.90
9971;DHT22;5026;51.494;11.974;2023-02-20T06:35:40;7.10;99.90
9971;DHT22;5026;51.494;11.974;2023-02-20T06:38:07;7.60;99.90
9971;DHT22;5026;51.494;11.974;2023-02-20T06:40:36;7.10;99.90
9971;DHT22;5026;51.494;11.974;2023-02-20T06:43:03;7.00;99.90
9971;DHT22;5026;51.494;11.974;2023-02-20T06:45:30;7.20;99.90
9971;DHT22;5026;51.494;11.974;2023-02-20T06:47:57;7.10;99.90
9971;DHT22;5026;51.494;11.974;2023-02-20T06:50:24;7.10;99.90
9971;DHT22;5026;51.494;11.974;2023-02-20T06:52:51;7.10;99.90
9971;DHT22;5026;51.494;11.974;2023-02-20T06:55:18;7.10;99.90
9971;DHT22;5026;51.494;11.974;2023-02-20T06:57:46;7.10;99.90
9971;DHT22;5026;51.494;11.974;2023-02-20T07:00:15;7.10;99.90
9971;DHT22;5026;51.494;11.974;2023-02-20T07:02:42;7.00;99.90
9971;DHT22;5026;51.494;11.974;2023-02-20T07:05:09;7.60;99.90
9971;DHT22;5026;51.494;11.974;2023-02-20T07:07:37;7.00;99.90
9971;DHT22;5026;51.494;11.974;2023-02-20T07:10:04;7.10;99.90
9971;DHT22;5026;51.494;11.974;2023-02-20T07:12:32;7.10;99.90
9971;DHT22;5026;51.494;11.974;2023-02-20T07:15:04;7.20;99.90
9971;DHT22;5026;51.494;11.974;2023-02-20T07:17:31;7.20;99.90
9971;DHT22;5026;51.494;11.974;2023-02-20T07:19:58;7.30;99.90
9971;DHT22;5026;51.494;11.974;2023-02-20T07:22:25;7.40;99.90
9971;DHT22;5026;51.494;11.974;2023-02-20T07:24:53;7.50;99.90
9971;DHT22;5026;51.494;11.974;2023-02-20T07:27:20;7.70;99.90
9971;DHT22;5026;51.494;11.974;2023-02-20T07:29:50;7.80;99.90
9971;DHT22;5026;51.494;11.974;2023-02-20T07:32:18;7.90;99.90
9971;DHT22;5026;51.494;11.974;2023-02-20T07:34:48;8.00;99.90
9971;DHT22;5026;51.494;11.974;2023-02-20T07:37:15;8.10;99.90
9971;DHT22;5026;51.494;11.974;2023-02-20T07:39:42;8.10;99.90
9971;DHT22;5026;51.494;11.974;2023-02-20T07:42:09;8.00;99.90
9971;DHT22;5026;51.494;11.974;2023-02-20T07:44:36;8.10;99.90
9971;DHT22;5026;51.494;11.974;2023-02-20T07:47:03;8.20;99.90
9971;DHT22;5026;51.494;11.974;2023-02-20T07:49:31;8.20;99.90
9971;DHT22;5026;51.494;11.974;2023-02-20T07:51:58;8.20;99.90
9971;DHT22;5026;51.494;11.974;2023-02-20T07:54:25;8.20;99.90
9971;DHT22;5026;51.494;11.974;2023-02-20T07:56:53;8.20;99.90
9971;DHT22;5026;51.494;11.974;2023-02-20T07:59:20;8.20;99.90
9971;DHT22;5026;51.494;11.974;2023-02-20T08:01:47;8.20;99.90
9971;DHT22;5026;51.494;11.974;2023-02-20T08:04:14;8.20;99.90
9971;DHT22;5026;51.494;11.974;2023-02-20T08:06:42;8.20;99.90
9971;DHT22;5026;51.494;11.974;2023-02-20T08:09:09;8.20;99.90
9971;DHT22;5026;51.494;11.974;2023-02-20T08:11:36;8.30;99.90
9971;DHT22;5026;51.494;11.974;2023-02-20T08:14:04;8.30;99.90
9971;DHT22;5026;51.494;11.974;2023-02-20T08:16:32;8.30;99.90
9971;DHT22;5026;51.494;11.974;2023-02-20T08:18:59;8.30;99.90
9971;DHT22;5026;51.494;11.974;2023-02-20T08:21:27;8.30;99.90
9971;DHT22;5026;51.494;11.974;2023-02-20T08:23:55;8.30;99.90
9971;DHT22;5026;51.494;11.974;2023-02-20T08:26:22;8.30;99.90
9971;DHT22;5026;51.494;11.974;2023-02-20T08:28:50;8.30;99.90
9971;DHT22;5026;51.494;11.974;2023-02-20T08:31:17;8.30;99.90
9971;DHT22;5026;51.494;11.974;2023-02-20T08:33:44;8.30;99.90
9971;DHT22;5026;51.494;11.974;2023-02-20T08:36:11;8.30;99.90
9971;DHT22;5026;51.494;11.974;2023-02-20T08:38:40;8.40;99.90
9971;DHT22;5026;51.494;11.974;2023-02-20T08:41:10;8.50;99.90
9971;DHT22;5026;51.494;11.974;2023-02-20T08:43:38;8.50;99.90
9971;DHT22;5026;51.494;11.974;2023-02-20T08:46:05;8.60;99.90
9971;DHT22;5026;51.494;11.974;2023-02-20T08:48:33;8.70;99.90
9971;DHT22;5026;51.494;11.974;2023-02-20T08:51:00;8.70;99.90
9971;DHT22;5026;51.494;11.974;2023-02-20T08:53:27;8.80;99.90
9971;DHT22;5026;51.494;11.974;2023-02-20T08:55:54;8.80;99.90
9971;DHT22;5026;51.494;11.974;2023-02-20T08:58:23;8.90;99.90
9971;DHT22;5026;51.494;11.974;2023-02-20T09:00:51;8.90;99.90
9971;DHT22;5026;51.494;11.974;2023-02-20T09:03:19;9.00;99.90
9971;DHT22;5026;51.494;11.974;2023-02-20T09:05:46;9.10;99.90
9971;DHT22;5026;51.494;11.974;2023-02-20T09:08:13;9.20;99.90
9971;DHT22;5026;51.494;11.974;2023-02-20T09:10:40;9.20;99.90
9971;DHT22;5026;51.494;11.974;2023-02-20T09:13:07;9.40;99.90
9971;DHT22;5026;51.494;11.974;2023-02-20T09:15:35;9.40;99.90
9971;DHT22;5026;51.494;11.974;2023-02-20T09:18:04;9.40;99.90
9971;DHT22;5026;51.494;11.974;2023-02-20T09:20:34;9.40;99.90
9971;DHT22;5026;51.494;11.974;2023-02-20T09:23:01;9.40;99.90
9971;DHT22;5026;51.494;11.974;2023-02-20T09:25:28;9.60;99.90
9971;DHT22;5026;51.494;11.974;2023-02-20T09:27:55;9.70;99.90
9971;DHT22;5026;51.494;11.974;2023-02-20T09:30:21;9.90;99.90
9971;DHT22;5026;51.494;11.974;2023-02-20T09:32:50;10.10;99.90
9971;DHT22;5026;51.494;11.974;2023-02-20T09:35:20;10.20;99.80
9971;DHT22;5026;51.494;11.974;2023-02-20T09:37:47;10.30;99.60
9971;DHT22;5026;51.494;11.974;2023-02-20T09:40:15;10.40;99.60
9971;DHT22;5026;51.494;11.974;2023-02-20T09:42:49;10.50;99.40
9971;DHT22;5026;51.494;11.974;2023-02-20T09:45:20;10.60;99.60
9971;DHT22;5026;51.494;11.974;2023-02-20T09:48:01;10.70;99.40
9971;DHT22;5026;51.494;11.974;2023-02-20T09:50:35;10.70;99.20
9971;DHT22;5026;51.494;11.974;2023-02-20T09:53:06;10.80;99.20
9971;DHT22;5026;51.494;11.974;2023-02-20T09:55:40;11.00;99.20
9971;DHT22;5026;51.494;11.974;2023-02-20T09:58:19;11.20;98.80
9971;DHT22;5026;51.494;11.974;2023-02-20T10:00:47;11.40;98.80
9971;DHT22;5026;51.494;11.974;2023-02-20T10:03:21;11.50;98.60
9971;DHT22;5026;51.494;11.974;2023-02-20T10:05:50;11.50;98.50
9971;DHT22;5026;51.494;11.974;2023-02-20T10:08:20;11.50;98.50
9971;DHT22;5026;51.494;11.974;2023-02-20T10:10:49;11.50;98.50
9971;DHT22;5026;51.494;11.974;2023-02-20T10:13:42;11.70;98.40
9971;DHT22;5026;51.494;11.974;2023-02-20T10:16:21;11.70;98.40
9971;DHT22;5026;51.494;11.974;2023-02-20T10:19:00;11.70;98.30
9971;DHT22;5026;51.494;11.974;2023-02-20T10:21:40;11.90;98.30
9971;DHT22;5026;51.494;11.974;2023-02-20T10:24:21;11.90;98.20
9971;DHT22;5026;51.494;11.974;2023-02-20T10:26:53;11.70;98.20
9971;DHT22;5026;51.494;11.974;2023-02-20T10:29:26;11.40;98.50
9971;DHT22;5026;51.494;11.974;2023-02-20T10:32:00;11.40;98.60
9971;DHT22;5026;51.494;11.974;2023-02-20T10:34:34;11.50;98.40
9971;DHT22;5026;51.494;11.974;2023-02-20T10:37:09;11.30;98.50
9971;DHT22;5026;51.494;11.974;2023-02-20T10:39:40;11.50;98.40
9971;DHT22;5026;51.494;11.974;2023-02-20T10:42:14;11.40;98.30
9971;DHT22;5026;51.494;11.974;2023-02-20T10:44:46;11.30;98.10
9971;DHT22;5026;51.494;11.974;2023-02-20T10:47:20;11.70;98.00
9971;DHT22;5026;51.494;11.974;2023-02-20T10:49:54;12.40;98.30
9971;DHT22;5026;51.494;11.974;2023-02-20T10:52:28;11.90;97.90
9971;DHT22;5026;51.494;11.974;2023-02-20T10:55:02;11.90;97.80
9971;DHT22;5026;51.494;11.974;2023-02-20T10:57:34;11.80;97.90
9971;DHT22;5026;51.494;11.974;2023-02-20T11:00:06;12.20;97.80
9971;DHT22;5026;51.494;11.974;2023-02-20T11:02:38;11.90;97.50
9971;DHT22;5026;51.494;11.974;2023-02-20T11:05:10;12.00;97.40
9971;DHT22;5026;51.494;11.974;2023-02-20T11:07:38;12.00;97.20
9971;DHT22;5026;51.494;11.974;2023-02-20T11:10:05;12.00;97.40
9971;DHT22;5026;51.494;11.974;2023-02-20T11:12:35;12.00;97.10
9971;DHT22;5026;51.494;11.974;2023-02-20T11:15:06;11.90;97.20
9971;DHT22;5026;51.494;11.974;2023-02-20T11:17:34;12.10;97.30
9971;DHT22;5026;51.494;11.974;2023-02-20T11:20:04;12.20;97.20
9971;DHT22;5026;51.494;11.974;2023-02-20T11:22:42;12.20;97.20
9971;DHT22;5026;51.494;11.974;2023-02-20T11:25:15;12.00;97.00
9971;DHT22;5026;51.494;11.974;2023-02-20T11:27:44;11.90;97.10
9971;DHT22;5026;51.494;11.974;2023-02-20T11:30:21;11.90;97.10
9971;DHT22;5026;51.494;11.974;2023-02-20T11:32:59;12.00;97.10
9971;DHT22;5026;51.494;11.974;2023-02-20T11:35:28;12.10;97.10
9971;DHT22;5026;51.494;11.974;2023-02-20T11:38:23;12.50;97.10
9971;DHT22;5026;51.494;11.974;2023-02-20T11:41:22;11.80;96.90
9971;DHT22;5026;51.494;11.974;2023-02-20T11:44:18;12.10;96.90
9971;DHT22;5026;51.494;11.974;2023-02-20T11:46:45;12.10;96.70
9971;DHT22;5026;51.494;11.974;2023-02-20T11:49:23;12.10;96.80
9971;DHT22;5026;51.494;11.974;2023-02-20T11:51:51;12.10;96.90
9971;DHT22;5026;51.494;11.974;2023-02-20T11:54:21;12.30;96.80
9971;DHT22;5026;51.494;11.974;2023-02-20T11:56:57;12.20;96.90
9971;DHT22;5026;51.494;11.974;2023-02-20T11:59:28;12.10;96.90
9971;DHT22;5026;51.494;11.974;2023-02-20T12:02:10;12.10;96.90
9971;DHT22;5026;51.494;11.974;2023-02-20T12:04:37;12.10;97.00
9971;DHT22;5026;51.494;11.974;2023-02-20T12:07:17;12.20;96.90
9971;DHT22;5026;51.494;11.974;2023-02-20T12:09:49;12.20;96.90
9971;DHT22;5026;51.494;11.974;2023-02-20T12:12:18;12.10;96.90
9971;DHT22;5026;51.494;11.974;2023-02-20T12:14:48;12.00;97.00
9971;DHT22;5026;51.494;11.974;2023-02-20T12:17:24;12.00;97.20
9971;DHT22;5026;51.494;11.974;2023-02-20T12:20:04;12.10;97.20
9971;DHT22;5026;51.494;11.974;2023-02-20T12:22:34;12.00;97.40
9971;DHT22;5026;51.494;11.974;2023-02-20T12:25:17;12.10;97.20
9971;DHT22;5026;51.494;11.974;2023-02-20T12:27:54;13.40;97.70
9971;DHT22;5026;51.494;11.974;2023-02-20T12:30:33;12.00;97.40
9971;DHT22;5026;51.494;11.974;2023-02-20T12:33:17;12.10;97.30
9971;DHT22;5026;51.494;11.974;2023-02-20T12:35:51;12.10;97.30
9971;DHT22;5026;51.494;11.974;2023-02-20T12:38:36;12.10;97.40
9971;DHT22;5026;51.494;11.974;2023-02-20T12:41:27;12.10;97.50
9971;DHT22;5026;51.494;11.974;2023-02-20T12:44:11;12.10;97.50
9971;DHT22;5026;51.494;11.974;2023-02-20T12:46:50;12.20;97.70
9971;DHT22;5026;51.494;11.974;2023-02-20T12:49:32;12.20;97.70
9971;DHT22;5026;51.494;11.974;2023-02-20T12:52:07;12.30;97.80
9971;DHT22;5026;51.494;11.974;2023-02-20T12:54:50;12.30;97.80
9971;DHT22;5026;51.494;11.974;2023-02-20T12:57:25;12.30;98.10
9971;DHT22;5026;51.494;11.974;2023-02-20T12:59:57;12.40;98.00
9971;DHT22;5026;51.494;11.974;2023-02-20T13:02:28;12.40;97.90
9971;DHT22;5026;51.494;11.974;2023-02-20T13:04:58;12.50;98.00
9971;DHT22;5026;51.494;11.974;2023-02-20T13:07:30;12.60;98.00
9971;DHT22;5026;51.494;11.974;2023-02-20T13:10:03;12.60;98.00
9971;DHT22;5026;51.494;11.974;2023-02-20T13:12:33;12.70;98.00
9971;DHT22;5026;51.494;11.974;2023-02-20T13:15:12;12.70;98.10
9971;DHT22;5026;51.494;11.974;2023-02-20T13:17:48;12.70;98.20
9971;DHT22;5026;51.494;11.974;2023-02-20T13:20:18;12.80;98.20
9971;DHT22;5026;51.494;11.974;2023-02-20T13:23:01;13.00;98.30
9971;DHT22;5026;51.494;11.974;2023-02-20T13:25:37;13.20;98.30
9971;DHT22;5026;51.494;11.974;2023-02-20T13:28:23;13.00;98.20
9971;DHT22;5026;51.494;11.974;2023-02-20T13:31:14;13.00;98.30
9971;DHT22;5026;51.494;11.974;2023-02-20T13:33:42;13.10;98.30
9971;DHT22;5026;51.494;11.974;2023-02-20T13:42:27;13.20;98.30
9971;DHT22;5026;51.494;11.974;2023-02-20T13:44:55;13.20;98.30
9971;DHT22;5026;51.494;11.974;2023-02-20T13:47:42;13.10;98.30
9971;DHT22;5026;51.494;11.974;2023-02-20T13:50:30;13.10;98.50
9971;DHT22;5026;51.494;11.974;2023-02-20T13:53:02;13.40;98.60
9971;DHT22;5026;51.494;11.974;2023-02-20T13:55:30;13.10;98.50
9971;DHT22;5026;51.494;11.974;2023-02-20T13:58:04;13.10;98.60
9971;DHT22;5026;51.494;11.974;2023-02-20T14:00:43;13.50;98.70
9971;DHT22;5026;51.494;11.974;2023-02-20T14:03:11;13.00;98.70
9971;DHT22;5026;51.494;11.974;2023-02-20T14:05:39;13.00;98.80
9971;DHT22;5026;51.494;11.974;2023-02-20T14:08:09;13.00;98.80
9971;DHT22;5026;51.494;11.974;2023-02-20T14:10:41;13.00;98.90
9971;DHT22;5026;51.494;11.974;2023-02-20T14:13:14;13.00;98.90
9971;DHT22;5026;51.494;11.974;2023-02-20T14:15:49;13.00;99.00
9971;DHT22;5026;51.494;11.974;2023-02-20T14:18:18;13.10;99.20
9971;DHT22;5026;51.494;11.974;2023-02-20T14:20:46;13.10;99.10
9971;DHT22;5026;51.494;11.974;2023-02-20T14:23:20;13.10;99.10
9971;DHT22;5026;51.494;11.974;2023-02-20T14:25:55;13.20;99.00
9971;DHT22;5026;51.494;11.974;2023-02-20T14:28:22;13.20;99.10
9971;DHT22;5026;51.494;11.974;2023-02-20T14:31:05;13.20;99.00
9971;DHT22;5026;51.494;11.974;2023-02-20T14:33:32;13.30;99.00
9971;DHT22;5026;51.494;11.974;2023-02-20T14:36:26;13.20;99.10
9971;DHT22;5026;51.494;11.974;2023-02-20T14:39:07;13.20;99.20
9971;DHT22;5026;51.494;11.974;2023-02-20T14:41:37;13.70;99.50
9971;DHT22;5026;51.494;11.974;2023-02-20T14:44:05;13.20;99.40
9971;DHT22;5026;51.494;11.974;2023-02-20T14:46:41;13.10;99.40
9971;DHT22;5026;51.494;11.974;2023-02-20T14:49:11;13.00;99.40
9971;DHT22;5026;51.494;11.974;2023-02-20T14:51:38;12.90;99.50
9971;DHT22;5026;51.494;11.974;2023-02-20T14:54:16;12.80;99.60
9971;DHT22;5026;51.494;11.974;2023-02-20T14:56:44;12.80;99.60
9971;DHT22;5026;51.494;11.974;2023-02-20T14:59:25;12.80;99.80
9971;DHT22;5026;51.494;11.974;2023-02-20T15:01:55;13.70;99.80
9971;DHT22;5026;51.494;11.974;2023-02-20T15:04:24;12.70;99.60
9971;DHT22;5026;51.494;11.974;2023-02-20T15:06:54;12.70;99.60
9971;DHT22;5026;51.494;11.974;2023-02-20T15:09:35;12.70;99.60
9971;DHT22;5026;51.494;11.974;2023-02-20T15:12:03;12.60;99.60
9971;DHT22;5026;51.494;11.974;2023-02-20T15:14:36;12.60;99.60
9971;DHT22;5026;51.494;11.974;2023-02-20T15:17:13;12.60;99.60
9971;DHT22;5026;51.494;11.974;2023-02-20T15:19:44;12.60;99.70
9971;DHT22;5026;51.494;11.974;2023-02-20T15:22:22;12.50;99.80
9971;DHT22;5026;51.494;11.974;2023-02-20T15:24:49;12.50;99.80
9971;DHT22;5026;51.494;11.974;2023-02-20T15:27:17;12.50;99.90
9971;DHT22;5026;51.494;11.974;2023-02-20T15:30:07;12.50;99.90
9971;DHT22;5026;51.494;11.974;2023-02-20T15:32:37;12.40;99.90
9971;DHT22;5026;51.494;11.974;2023-02-20T15:35:11;12.40;99.90
9971;DHT22;5026;51.494;11.974;2023-02-20T15:37:38;12.40;99.90
9971;DHT22;5026;51.494;11.974;2023-02-20T15:40:15;12.40;99.90
9971;DHT22;5026;51.494;11.974;2023-02-20T15:42:42;12.30;99.90
9971;DHT22;5026;51.494;11.974;2023-02-20T15:45:11;12.30;99.90
9971;DHT22;5026;51.494;11.974;2023-02-20T15:47:39;12.20;99.90
9971;DHT22;5026;51.494;11.974;2023-02-20T15:50:07;12.10;99.90
9971;DHT22;5026;51.494;11.974;2023-02-20T15:52:34;12.00;99.90
9971;DHT22;5026;51.494;11.974;2023-02-20T15:55:01;11.90;99.90
9971;DHT22;5026;51.494;11.974;2023-02-20T15:57:28;11.90;99.90
9971;DHT22;5026;51.494;11.974;2023-02-20T15:59:55;11.90;99.90
9971;DHT22;5026;51.494;11.974;2023-02-20T16:02:23;11.90;99.90
9971;DHT22;5026;51.494;11.974;2023-02-20T16:04:51;11.80;99.90
9971;DHT22;5026;51.494;11.974;2023-02-20T16:07:19;11.70;99.90
9971;DHT22;5026;51.494;11.974;2023-02-20T16:09:47;11.60;99.90
9971;DHT22;5026;51.494;11.974;2023-02-20T16:12:20;11.50;99.90
9971;DHT22;5026;51.494;11.974;2023-02-20T16:14:49;11.50;99.90
9971;DHT22;5026;51.494;11.974;2023-02-20T16:17:22;11.40;99.90
9971;DHT22;5026;51.494;11.974;2023-02-20T16:19:51;11.30;99.90
9971;DHT22;5026;51.494;11.974;2023-02-20T16:22:18;11.20;99.90
9971;DHT22;5026;51.494;11.974;2023-02-20T16:24:45;11.10;99.90
9971;DHT22;5026;51.494;11.974;2023-02-20T16:27:17;10.90;99.90
9971;DHT22;5026;51.494;11.974;2023-02-20T16:29:44;11.70;99.90